Time;durP1;ratioP1;P1;durP2;ratioP2;P2;SDS_P1;SDS_P2;PMS_P1;PMS_P2;Temp;Humidity;BMP_temperature;BMP_pressure;BME280_temperature;BME280_humidity;BME280_pressure;Samples;Min_cycle;Max_cycle;Signal;HPM_P1;HPM_P2
2022/03/23 00:01:17;;;;;;;12.82;6.40;;;;;;;;;;20923439;28;20055;-60
2022/03/23 00:11:20;;;;;;;13.38;5.95;;;;;;;;;;20923669;28;20069;-60
2022/03/23 00:21:23;;;;;;;10.60;5.95;;;;;;;;;;20922267;28;20061;-59
2022/03/23 00:31:26;;;;;;;10.05;5.13;;;;;;;;;;20921128;28;20055;-61
2022/03/23 00:41:30;;;;;;;8.90;5.43;;;;;;;;;;20919455;28;20064;-60
2022/03/23 00:51:32;;;;;;;9.00;5.18;;;;;;;;;;20918993;28;20077;-60
2022/03/23 01:01:35;;;;;;;7.85;4.70;;;;;;;;;;20919119;28;20485;-61
2022/03/23 01:11:38;;;;;;;7.05;4.35;;;;;;;;;;20918233;28;20414;-61
2022/03/23 01:21:40;;;;;;;6.38;4.50;;;;;;;;;;20916687;28;20063;-60
2022/03/23 01:31:44;;;;;;;6.93;5.22;;;;;;;;;;20916267;28;20045;-60
2022/03/23 01:41:46;;;;;;;10.55;5.65;;;;;;;;;;20915300;28;20409;-59
2022/03/23 01:51:48;;;;;;;9.18;5.32;;;;;;;;;;20915361;28;20457;-61
2022/03/23 02:01:51;;;;;;;11.57;5.20;;;;;;;;;;20913394;28;20049;-60
2022/03/23 02:11:54;;;;;;;9.70;5.78;;;;;;;;;;20913460;28;20496;-60
2022/03/23 02:21:57;;;;;;;9.98;6.63;;;;;;;;;;20912431;28;20460;-59
2022/03/23 02:32:01;;;;;;;7.63;5.43;;;;;;;;;;20913096;28;20041;-61
2022/03/23 02:42:06;;;;;;;8.57;5.18;;;;;;;;;;20912575;28;20424;-60
2022/03/23 02:52:13;;;;;;;7.22;5.43;;;;;;;;;;20912078;28;20052;-61
2022/03/23 03:02:21;;;;;;;8.35;4.93;;;;;;;;;;20910496;28;20056;-60
2022/03/23 03:12:23;;;;;;;10.43;5.45;;;;;;;;;;20925442;28;20044;-60
2022/03/23 03:22:27;;;;;;;8.73;4.65;;;;;;;;;;20925853;28;20450;-59
2022/03/23 03:32:30;;;;;;;7.40;4.35;;;;;;;;;;20924996;28;20125;-60
2022/03/23 03:42:34;;;;;;;7.88;5.03;;;;;;;;;;20924429;28;20098;-60
2022/03/23 03:52:37;;;;;;;8.13;4.80;;;;;;;;;;20923725;28;20045;-60
2022/03/23 04:02:40;;;;;;;6.50;4.97;;;;;;;;;;20922738;28;20107;-60
2022/03/23 04:13:02;;;;;;;8.50;4.18;;;;;;;;;;20923341;28;20052;-60
2022/03/23 04:23:23;;;;;;;6.35;4.18;;;;;;;;;;20919982;28;20057;-59
2022/03/23 04:33:31;;;;;;;5.40;3.75;;;;;;;;;;20921283;28;20075;-60
2022/03/23 04:43:41;;;;;;;7.80;4.65;;;;;;;;;;20919531;28;20049;-61
2022/03/23 04:53:56;;;;;;;7.28;4.65;;;;;;;;;;20918522;28;20095;-61
2022/03/23 05:04:00;;;;;;;4.32;3.63;;;;;;;;;;20918992;28;20132;-61
2022/03/23 05:14:03;;;;;;;8.55;4.15;;;;;;;;;;20917320;28;20044;-60
2022/03/23 05:24:06;;;;;;;6.70;4.35;;;;;;;;;;20916763;28;20060;-60
2022/03/23 05:34:09;;;;;;;7.15;4.85;;;;;;;;;;20915905;28;20049;-59
2022/03/23 05:44:11;;;;;;;10.95;5.35;;;;;;;;;;20914748;28;20059;-59
2022/03/23 05:54:16;;;;;;;7.88;5.40;;;;;;;;;;20914500;28;20084;-60
2022/03/23 06:04:18;;;;;;;7.63;4.88;;;;;;;;;;20914409;28;20041;-59
2022/03/23 06:14:20;;;;;;;7.57;4.05;;;;;;;;;;20913033;28;20052;-60
2022/03/23 06:24:24;;;;;;;5.30;4.10;;;;;;;;;;20911393;28;20048;-60
2022/03/23 06:34:27;;;;;;;6.15;3.85;;;;;;;;;;20911753;28;20099;-59
2022/03/23 06:44:29;;;;;;;6.22;3.60;;;;;;;;;;20929174;28;20470;-60
2022/03/23 06:54:33;;;;;;;4.80;2.78;;;;;;;;;;20938421;28;20055;-60
2022/03/23 07:04:35;;;;;;;7.22;3.30;;;;;;;;;;20938463;28;20383;-60
2022/03/23 07:14:39;;;;;;;8.05;5.75;;;;;;;;;;20937707;28;20052;-59
2022/03/23 07:24:41;;;;;;;3.47;2.33;;;;;;;;;;20937663;28;20354;-60
2022/03/23 07:34:44;;;;;;;4.25;2.65;;;;;;;;;;20937307;28;20057;-60
2022/03/23 07:44:46;;;;;;;6.75;2.85;;;;;;;;;;20937148;28;20401;-58
2022/03/23 07:54:49;;;;;;;8.80;2.65;;;;;;;;;;20927830;28;20102;-60
2022/03/23 08:04:51;;;;;;;3.53;2.50;;;;;;;;;;20922367;28;20486;-60
2022/03/23 08:14:53;;;;;;;4.78;3.08;;;;;;;;;;20923185;28;20052;-60
2022/03/23 08:24:55;;;;;;;6.75;2.97;;;;;;;;;;20920921;28;20053;-61
2022/03/23 08:34:57;;;;;;;7.13;2.92;;;;;;;;;;20920518;28;20052;-60
2022/03/23 08:44:59;;;;;;;4.38;2.80;;;;;;;;;;20920910;28;20534;-61
2022/03/23 08:55:03;;;;;;;7.07;2.75;;;;;;;;;;20920868;28;20094;-60
2022/03/23 09:05:09;;;;;;;8.43;2.83;;;;;;;;;;20933475;28;20134;-61
2022/03/23 09:15:18;;;;;;;3.92;2.20;;;;;;;;;;20916501;28;20045;-56
2022/03/23 09:25:27;;;;;;;4.65;2.28;;;;;;;;;;20911694;28;20049;-62
2022/03/23 09:35:29;;;;;;;25.95;19.92;;;;;;;;;;20912587;28;20068;-62
2022/03/23 09:55:34;;;;;;;6.30;2.50;;;;;;;;;;20913300;28;20049;-57
2022/03/23 10:05:51;;;;;;;4.88;2.47;;;;;;;;;;20913158;28;20045;-61
2022/03/23 10:16:12;;;;;;;3.80;2.30;;;;;;;;;;20914379;28;20067;-58
2022/03/23 10:26:14;;;;;;;5.70;2.55;;;;;;;;;;20912149;28;20513;-57
2022/03/23 10:36:17;;;;;;;3.65;2.20;;;;;;;;;;20912220;28;20160;-68
2022/03/23 10:46:20;;;;;;;3.58;2.00;;;;;;;;;;20911537;28;20049;-63
2022/03/23 10:56:33;;;;;;;3.33;2.22;;;;;;;;;;20912275;28;20045;-61
2022/03/23 11:06:42;;;;;;;5.53;2.30;;;;;;;;;;20911762;28;20068;-61
2022/03/23 11:16:47;;;;;;;5.25;2.25;;;;;;;;;;20909615;28;20084;-60
2022/03/23 11:26:49;;;;;;;3.47;2.20;;;;;;;;;;20913922;28;20140;-59
2022/03/23 11:36:53;;;;;;;5.07;2.22;;;;;;;;;;20925956;28;20094;-58
2022/03/23 11:46:59;;;;;;;4.77;3.23;;;;;;;;;;20924431;28;20041;-60
2022/03/23 11:57:02;;;;;;;3.85;2.20;;;;;;;;;;20923972;28;20404;-57
2022/03/23 12:07:04;;;;;;;4.18;2.20;;;;;;;;;;20922806;28;20060;-65
2022/03/23 12:17:10;;;;;;;3.08;1.67;;;;;;;;;;20922291;28;20136;-61
2022/03/23 12:27:28;;;;;;;3.13;1.90;;;;;;;;;;20921444;28;20060;-62
2022/03/23 12:37:41;;;;;;;3.30;1.70;;;;;;;;;;20918994;28;20048;-63
2022/03/23 12:57:49;;;;;;;3.58;2.40;;;;;;;;;;20921545;28;20045;-59
2022/03/23 12:58:31;;;;;;;2.58;1.55;;;;;;;;;;20918602;28;20049;-58
2022/03/23 13:08:35;;;;;;;3.47;1.63;;;;;;;;;;20918287;28;20072;-58
2022/03/23 13:18:38;;;;;;;3.63;1.97;;;;;;;;;;20917582;28;20448;-58
2022/03/23 13:28:43;;;;;;;5.40;2.38;;;;;;;;;;20915962;28;20057;-59
2022/03/23 13:38:49;;;;;;;3.55;1.88;;;;;;;;;;20915004;28;20057;-58
2022/03/23 13:48:59;;;;;;;3.03;1.90;;;;;;;;;;20914474;28;20103;-58
2022/03/23 13:59:02;;;;;;;3.20;1.90;;;;;;;;;;20914273;28;20049;-59
2022/03/23 14:09:05;;;;;;;3.65;2.42;;;;;;;;;;20914529;28;20041;-57
2022/03/23 14:19:09;;;;;;;6.45;3.50;;;;;;;;;;20913420;28;20092;-64
2022/03/23 14:29:21;;;;;;;5.75;3.72;;;;;;;;;;20912353;28;20064;-57
2022/03/23 14:39:23;;;;;;;13.43;6.75;;;;;;;;;;20912897;28;20455;-59
2022/03/23 14:49:34;;;;;;;6.78;4.95;;;;;;;;;;20912128;28;20079;-58
2022/03/23 14:59:47;;;;;;;8.45;5.30;;;;;;;;;;20910782;28;20057;-61
2022/03/23 15:20:11;;;;;;;8.38;5.88;;;;;;;;;;20927456;28;20136;-60
2022/03/23 15:30:14;;;;;;;10.75;4.97;;;;;;;;;;20925287;28;20492;-59
2022/03/23 15:40:16;;;;;;;7.53;4.90;;;;;;;;;;20923078;28;20045;-58
2022/03/23 15:50:18;;;;;;;7.60;6.00;;;;;;;;;;20925308;28;20045;-61
2022/03/23 16:00:20;;;;;;;6.60;4.53;;;;;;;;;;20923492;28;20045;-63
2022/03/23 16:10:23;;;;;;;8.73;5.22;;;;;;;;;;20923410;28;20060;-62
2022/03/23 16:20:25;;;;;;;7.93;4.68;;;;;;;;;;20920296;28;20053;-63
2022/03/23 16:30:27;;;;;;;8.02;4.65;;;;;;;;;;20921155;28;20075;-61
2022/03/23 16:40:29;;;;;;;7.00;4.32;;;;;;;;;;20919259;28;20136;-63
2022/03/23 16:50:32;;;;;;;6.35;4.15;;;;;;;;;;20919851;28;20045;-62
2022/03/23 17:00:36;;;;;;;5.22;4.10;;;;;;;;;;20918025;28;20099;-62
2022/03/23 17:20:58;;;;;;;7.28;3.90;;;;;;;;;;20916455;28;20068;-61
2022/03/23 17:31:01;;;;;;;7.43;4.60;;;;;;;;;;20914779;28;20099;-60
2022/03/23 17:41:03;;;;;;;15.48;5.22;;;;;;;;;;20915321;28;20057;-63
2022/03/23 17:51:05;;;;;;;7.25;4.40;;;;;;;;;;20914646;28;20048;-62
2022/03/23 18:01:08;;;;;;;6.43;3.60;;;;;;;;;;20913833;28;20037;-65
2022/03/23 18:11:10;;;;;;;8.43;4.65;;;;;;;;;;20913913;28;20041;-60
2022/03/23 18:21:12;;;;;;;5.57;3.20;;;;;;;;;;20912979;28;20084;-64
2022/03/23 18:31:15;;;;;;;7.43;3.67;;;;;;;;;;20912365;28;20128;-61
2022/03/23 18:41:19;;;;;;;6.93;3.72;;;;;;;;;;20911127;28;20055;-70
2022/03/23 18:51:21;;;;;;;8.95;3.53;;;;;;;;;;20911121;28;20508;-71
2022/03/23 19:01:22;;;;;;;4.97;3.17;;;;;;;;;;20910685;28;20079;-67
2022/03/23 19:11:24;;;;;;;6.93;4.00;;;;;;;;;;20910664;28;20349;-60
2022/03/23 19:21:27;;;;;;;6.10;4.15;;;;;;;;;;20909206;28;20140;-61
2022/03/23 19:31:29;;;;;;;6.50;4.60;;;;;;;;;;20910179;28;20138;-60
2022/03/23 19:41:32;;;;;;;6.78;4.72;;;;;;;;;;20908190;28;20048;-66
2022/03/23 19:51:35;;;;;;;29.02;23.08;;;;;;;;;;20916454;28;20107;-57
2022/03/23 20:01:37;;;;;;;8.60;6.82;;;;;;;;;;20921978;28;20408;-54
2022/03/23 20:11:39;;;;;;;8.50;5.50;;;;;;;;;;20922204;28;20095;-60
2022/03/23 20:21:42;;;;;;;6.20;4.68;;;;;;;;;;20921798;28;20045;-57
2022/03/23 20:31:44;;;;;;;8.02;4.95;;;;;;;;;;20922334;28;20056;-58
2022/03/23 20:41:46;;;;;;;12.05;8.10;;;;;;;;;;20920731;28;20056;-58
2022/03/23 20:51:48;;;;;;;12.38;8.05;;;;;;;;;;20920392;28;20045;-58
2022/03/23 21:01:53;;;;;;;8.38;5.55;;;;;;;;;;20918876;28;20053;-59
2022/03/23 21:11:57;;;;;;;11.00;6.65;;;;;;;;;;20917689;28;20044;-58
2022/03/23 21:21:59;;;;;;;13.60;9.68;;;;;;;;;;20917397;28;20482;-58
2022/03/23 21:32:02;;;;;;;15.18;9.93;;;;;;;;;;20915724;28;20053;-57
2022/03/23 21:42:04;;;;;;;8.77;6.05;;;;;;;;;;20914825;28;20142;-59
2022/03/23 21:52:06;;;;;;;8.55;5.85;;;;;;;;;;20914889;28;20127;-60
2022/03/23 22:02:09;;;;;;;5.65;4.55;;;;;;;;;;20912725;28;20049;-56
2022/03/23 22:12:11;;;;;;;7.20;4.25;;;;;;;;;;20911600;28;20052;-58
2022/03/23 22:22:13;;;;;;;7.53;4.80;;;;;;;;;;20912887;28;20092;-58
2022/03/23 22:32:15;;;;;;;5.72;4.60;;;;;;;;;;20913537;28;20052;-58
2022/03/23 22:42:17;;;;;;;7.32;4.35;;;;;;;;;;20912196;28;20060;-60
2022/03/23 22:52:19;;;;;;;7.55;4.72;;;;;;;;;;20912072;28;20413;-57
2022/03/23 23:02:21;;;;;;;6.45;4.57;;;;;;;;;;20911673;28;20045;-58
2022/03/23 23:12:23;;;;;;;7.45;4.22;;;;;;;;;;20912383;28;20410;-58
2022/03/23 23:22:25;;;;;;;10.05;4.80;;;;;;;;;;20913483;28;20107;-59
2022/03/23 23:32:29;;;;;;;7.57;5.05;;;;;;;;;;20927607;28;20087;-59
2022/03/23 23:42:33;;;;;;;8.65;5.35;;;;;;;;;;20925235;28;20075;-58
2022/03/23 23:52:35;;;;;;;13.40;8.03;;;;;;;;;;20925668;28;20056;-57
